sensor_id;sensor_type;location;lat;lon;timestamp;temperature;humidity
24686;DHT22;12804;51.176;4.452;2024-03-08T00:00:09;5.80;73.40
24686;DHT22;12804;51.176;4.452;2024-03-08T00:02:39;5.80;71.20
24686;DHT22;12804;51.176;4.452;2024-03-08T00:05:06;5.80;67.40
24686;DHT22;12804;51.176;4.452;2024-03-08T00:07:43;5.80;58.00
24686;DHT22;12804;51.176;4.452;2024-03-08T00:10:10;5.80;57.70
24686;DHT22;12804;51.176;4.452;2024-03-08T00:12:40;5.70;62.20
24686;DHT22;12804;51.176;4.452;2024-03-08T00:15:10;5.70;63.40
24686;DHT22;12804;51.176;4.452;2024-03-08T00:17:44;5.70;49.90
24686;DHT22;12804;51.176;4.452;2024-03-08T00:20:10;5.70;48.20
24686;DHT22;12804;51.176;4.452;2024-03-08T00:22:39;5.70;47.50
24686;DHT22;12804;51.176;4.452;2024-03-08T00:25:06;5.70;45.40
24686;DHT22;12804;51.176;4.452;2024-03-08T00:27:34;5.70;41.20
24686;DHT22;12804;51.176;4.452;2024-03-08T00:30:00;5.50;52.50
24686;DHT22;12804;51.176;4.452;2024-03-08T00:32:29;5.50;55.60
24686;DHT22;12804;51.176;4.452;2024-03-08T00:34:57;5.40;54.90
24686;DHT22;12804;51.176;4.452;2024-03-08T00:37:23;5.50;53.40
24686;DHT22;12804;51.176;4.452;2024-03-08T00:39:50;5.50;39.80
24686;DHT22;12804;51.176;4.452;2024-03-08T00:42:16;5.50;40.30
24686;DHT22;12804;51.176;4.452;2024-03-08T00:44:43;5.40;44.60
24686;DHT22;12804;51.176;4.452;2024-03-08T00:47:10;5.40;42.90
24686;DHT22;12804;51.176;4.452;2024-03-08T00:49:36;5.50;39.70
24686;DHT22;12804;51.176;4.452;2024-03-08T00:52:06;5.40;30.60
24686;DHT22;12804;51.176;4.452;2024-03-08T00:54:32;5.40;28.30
24686;DHT22;12804;51.176;4.452;2024-03-08T00:56:58;5.30;38.60
24686;DHT22;12804;51.176;4.452;2024-03-08T00:59:29;5.20;40.00
24686;DHT22;12804;51.176;4.452;2024-03-08T01:01:55;5.20;35.30
24686;DHT22;12804;51.176;4.452;2024-03-08T01:04:22;5.20;33.80
24686;DHT22;12804;51.176;4.452;2024-03-08T01:06:53;5.20;26.90
24686;DHT22;12804;51.176;4.452;2024-03-08T01:09:19;5.30;17.50
24686;DHT22;12804;51.176;4.452;2024-03-08T01:11:47;5.30;9.20
24686;DHT22;12804;51.176;4.452;2024-03-08T01:14:13;5.30;7.20
24686;DHT22;12804;51.176;4.452;2024-03-08T01:16:39;5.40;2.80
24686;DHT22;12804;51.176;4.452;2024-03-08T01:19:04;5.20;7.20
24686;DHT22;12804;51.176;4.452;2024-03-08T01:21:31;5.20;5.40
24686;DHT22;12804;51.176;4.452;2024-03-08T01:23:56;5.10;3.50
24686;DHT22;12804;51.176;4.452;2024-03-08T01:26:22;5.20;1.00
24686;DHT22;12804;51.176;4.452;2024-03-08T01:28:49;5.30;1.00
24686;DHT22;12804;51.176;4.452;2024-03-08T01:31:15;5.20;1.00
24686;DHT22;12804;51.176;4.452;2024-03-08T01:33:41;5.10;1.00
24686;DHT22;12804;51.176;4.452;2024-03-08T01:36:07;5.10;1.00
24686;DHT22;12804;51.176;4.452;2024-03-08T01:38:41;5.10;1.00
24686;DHT22;12804;51.176;4.452;2024-03-08T01:41:07;5.00;1.00
24686;DHT22;12804;51.176;4.452;2024-03-08T01:43:34;5.00;1.00
24686;DHT22;12804;51.176;4.452;2024-03-08T01:46:00;5.00;1.00
24686;DHT22;12804;51.176;4.452;2024-03-08T01:48:30;5.10;1.00
24686;DHT22;12804;51.176;4.452;2024-03-08T01:50:57;5.00;1.00
24686;DHT22;12804;51.176;4.452;2024-03-08T01:53:30;5.00;1.00
24686;DHT22;12804;51.176;4.452;2024-03-08T01:55:57;5.00;1.00
24686;DHT22;12804;51.176;4.452;2024-03-08T01:58:24;4.80;1.00
24686;DHT22;12804;51.176;4.452;2024-03-08T02:00:50;4.90;1.00
24686;DHT22;12804;51.176;4.452;2024-03-08T02:03:18;4.80;1.00
24686;DHT22;12804;51.176;4.452;2024-03-08T02:05:44;4.70;1.00
24686;DHT22;12804;51.176;4.452;2024-03-08T02:08:10;4.70;1.00
24686;DHT22;12804;51.176;4.452;2024-03-08T02:10:44;4.70;1.00
24686;DHT22;12804;51.176;4.452;2024-03-08T02:13:10;4.70;1.00
24686;DHT22;12804;51.176;4.452;2024-03-08T02:15:57;4.70;1.00
24686;DHT22;12804;51.176;4.452;2024-03-08T02:18:25;4.70;1.00
24686;DHT22;12804;51.176;4.452;2024-03-08T02:20:52;4.60;1.00
24686;DHT22;12804;51.176;4.452;2024-03-08T02:23:22;4.60;1.00
24686;DHT22;12804;51.176;4.452;2024-03-08T02:25:49;4.50;1.00
24686;DHT22;12804;51.176;4.452;2024-03-08T02:28:15;4.50;1.00
24686;DHT22;12804;51.176;4.452;2024-03-08T02:30:41;4.50;1.00
24686;DHT22;12804;51.176;4.452;2024-03-08T02:33:08;4.50;1.00
24686;DHT22;12804;51.176;4.452;2024-03-08T02:35:36;4.50;1.00
24686;DHT22;12804;51.176;4.452;2024-03-08T02:38:03;4.50;1.00
24686;DHT22;12804;51.176;4.452;2024-03-08T02:40:29;4.40;1.00
24686;DHT22;12804;51.176;4.452;2024-03-08T02:42:55;4.40;1.00
24686;DHT22;12804;51.176;4.452;2024-03-08T02:45:21;4.40;1.00
24686;DHT22;12804;51.176;4.452;2024-03-08T02:47:47;4.50;1.00
24686;DHT22;12804;51.176;4.452;2024-03-08T02:50:16;4.50;1.00
24686;DHT22;12804;51.176;4.452;2024-03-08T02:52:42;4.40;1.00
24686;DHT22;12804;51.176;4.452;2024-03-08T02:55:09;4.40;1.00
24686;DHT22;12804;51.176;4.452;2024-03-08T02:57:36;4.40;1.00
24686;DHT22;12804;51.176;4.452;2024-03-08T03:00:02;4.40;1.00
24686;DHT22;12804;51.176;4.452;2024-03-08T03:02:29;4.30;1.00
24686;DHT22;12804;51.176;4.452;2024-03-08T03:04:55;4.40;1.00
24686;DHT22;12804;51.176;4.452;2024-03-08T03:07:24;4.40;1.00
24686;DHT22;12804;51.176;4.452;2024-03-08T03:09:53;4.40;1.00
24686;DHT22;12804;51.176;4.452;2024-03-08T03:12:19;4.30;1.00
24686;DHT22;12804;51.176;4.452;2024-03-08T03:14:44;4.30;1.00
24686;DHT22;12804;51.176;4.452;2024-03-08T03:17:10;4.30;1.00
24686;DHT22;12804;51.176;4.452;2024-03-08T03:19:36;4.30;1.00
24686;DHT22;12804;51.176;4.452;2024-03-08T03:22:02;4.30;1.00
24686;DHT22;12804;51.176;4.452;2024-03-08T03:24:28;4.30;1.00
24686;DHT22;12804;51.176;4.452;2024-03-08T03:26:55;4.30;1.00
24686;DHT22;12804;51.176;4.452;2024-03-08T03:29:21;4.30;1.00
24686;DHT22;12804;51.176;4.452;2024-03-08T03:31:46;4.30;1.00
24686;DHT22;12804;51.176;4.452;2024-03-08T03:34:13;4.10;1.00
24686;DHT22;12804;51.176;4.452;2024-03-08T03:36:39;4.00;1.00
24686;DHT22;12804;51.176;4.452;2024-03-08T03:39:11;4.00;1.00
24686;DHT22;12804;51.176;4.452;2024-03-08T03:41:39;4.10;1.00
24686;DHT22;12804;51.176;4.452;2024-03-08T03:44:05;4.10;1.00
24686;DHT22;12804;51.176;4.452;2024-03-08T03:46:32;4.10;1.00
24686;DHT22;12804;51.176;4.452;2024-03-08T03:48:58;4.00;1.00
24686;DHT22;12804;51.176;4.452;2024-03-08T03:51:24;4.00;1.00
24686;DHT22;12804;51.176;4.452;2024-03-08T03:53:51;3.90;1.00
24686;DHT22;12804;51.176;4.452;2024-03-08T03:56:19;3.90;1.00
24686;DHT22;12804;51.176;4.452;2024-03-08T03:58:44;3.90;1.00
24686;DHT22;12804;51.176;4.452;2024-03-08T04:01:10;3.90;1.00
24686;DHT22;12804;51.176;4.452;2024-03-08T04:03:37;3.80;1.00
24686;DHT22;12804;51.176;4.452;2024-03-08T04:06:04;3.80;1.00
24686;DHT22;12804;51.176;4.452;2024-03-08T04:08:30;3.80;1.00
24686;DHT22;12804;51.176;4.452;2024-03-08T04:10:56;3.80;1.00
24686;DHT22;12804;51.176;4.452;2024-03-08T04:13:23;3.70;1.00
24686;DHT22;12804;51.176;4.452;2024-03-08T04:15:49;3.60;1.00
24686;DHT22;12804;51.176;4.452;2024-03-08T04:18:15;3.60;1.00
24686;DHT22;12804;51.176;4.452;2024-03-08T04:20:41;3.70;1.00
24686;DHT22;12804;51.176;4.452;2024-03-08T04:23:07;3.70;1.00
24686;DHT22;12804;51.176;4.452;2024-03-08T04:25:33;3.70;1.00
24686;DHT22;12804;51.176;4.452;2024-03-08T04:27:58;3.70;1.00
24686;DHT22;12804;51.176;4.452;2024-03-08T04:30:24;3.70;1.00
24686;DHT22;12804;51.176;4.452;2024-03-08T04:32:50;3.70;1.00
24686;DHT22;12804;51.176;4.452;2024-03-08T04:35:16;3.80;1.00
24686;DHT22;12804;51.176;4.452;2024-03-08T04:37:42;3.60;1.00
24686;DHT22;12804;51.176;4.452;2024-03-08T04:40:08;3.60;1.00
24686;DHT22;12804;51.176;4.452;2024-03-08T04:42:35;3.60;1.00
24686;DHT22;12804;51.176;4.452;2024-03-08T04:45:02;3.60;1.00
24686;DHT22;12804;51.176;4.452;2024-03-08T04:47:29;3.50;1.00
24686;DHT22;12804;51.176;4.452;2024-03-08T04:49:56;3.50;1.00
24686;DHT22;12804;51.176;4.452;2024-03-08T04:52:23;3.60;1.00
24686;DHT22;12804;51.176;4.452;2024-03-08T04:54:49;3.60;1.00
24686;DHT22;12804;51.176;4.452;2024-03-08T04:57:15;3.60;1.00
24686;DHT22;12804;51.176;4.452;2024-03-08T04:59:43;3.60;1.00
24686;DHT22;12804;51.176;4.452;2024-03-08T05:02:09;3.50;1.00
24686;DHT22;12804;51.176;4.452;2024-03-08T05:04:35;3.60;1.00
24686;DHT22;12804;51.176;4.452;2024-03-08T05:07:02;3.60;1.00
24686;DHT22;12804;51.176;4.452;2024-03-08T05:09:28;3.60;1.00
24686;DHT22;12804;51.176;4.452;2024-03-08T05:11:54;3.60;1.00
24686;DHT22;12804;51.176;4.452;2024-03-08T05:14:20;3.50;1.00
24686;DHT22;12804;51.176;4.452;2024-03-08T05:16:47;3.40;1.00
24686;DHT22;12804;51.176;4.452;2024-03-08T05:19:16;3.40;1.00
24686;DHT22;12804;51.176;4.452;2024-03-08T05:21:43;3.40;1.00
24686;DHT22;12804;51.176;4.452;2024-03-08T05:24:09;3.30;1.00
24686;DHT22;12804;51.176;4.452;2024-03-08T05:26:36;3.30;1.00
24686;DHT22;12804;51.176;4.452;2024-03-08T05:29:06;3.30;1.00
24686;DHT22;12804;51.176;4.452;2024-03-08T05:31:59;3.30;1.00
24686;DHT22;12804;51.176;4.452;2024-03-08T05:34:25;3.30;1.00
24686;DHT22;12804;51.176;4.452;2024-03-08T05:36:51;3.40;1.00
24686;DHT22;12804;51.176;4.452;2024-03-08T05:39:19;3.40;1.00
24686;DHT22;12804;51.176;4.452;2024-03-08T05:41:45;3.40;1.00
24686;DHT22;12804;51.176;4.452;2024-03-08T05:44:14;3.40;1.00
24686;DHT22;12804;51.176;4.452;2024-03-08T05:46:42;3.30;1.00
24686;DHT22;12804;51.176;4.452;2024-03-08T05:49:09;3.20;1.00
24686;DHT22;12804;51.176;4.452;2024-03-08T05:51:37;3.10;1.00
24686;DHT22;12804;51.176;4.452;2024-03-08T05:54:04;3.20;1.00
24686;DHT22;12804;51.176;4.452;2024-03-08T05:56:34;3.20;1.00
24686;DHT22;12804;51.176;4.452;2024-03-08T05:59:00;3.20;1.00
24686;DHT22;12804;51.176;4.452;2024-03-08T06:01:26;3.20;1.00
24686;DHT22;12804;51.176;4.452;2024-03-08T06:03:54;3.30;1.00
24686;DHT22;12804;51.176;4.452;2024-03-08T06:06:22;3.20;1.00
24686;DHT22;12804;51.176;4.452;2024-03-08T06:08:49;4.00;99.90
24686;DHT22;12804;51.176;4.452;2024-03-08T06:11:16;3.70;1.00
24686;DHT22;12804;51.176;4.452;2024-03-08T06:13:44;3.50;1.00
24686;DHT22;12804;51.176;4.452;2024-03-08T06:16:10;3.40;1.00
24686;DHT22;12804;51.176;4.452;2024-03-08T06:18:36;3.30;1.00
24686;DHT22;12804;51.176;4.452;2024-03-08T06:21:05;3.40;1.00
24686;DHT22;12804;51.176;4.452;2024-03-08T06:23:34;3.30;1.00
24686;DHT22;12804;51.176;4.452;2024-03-08T06:26:07;3.30;1.00
24686;DHT22;12804;51.176;4.452;2024-03-08T06:28:34;3.20;1.00
24686;DHT22;12804;51.176;4.452;2024-03-08T06:31:00;3.20;1.00
24686;DHT22;12804;51.176;4.452;2024-03-08T06:33:27;3.10;1.00
24686;DHT22;12804;51.176;4.452;2024-03-08T06:35:54;3.10;1.00
24686;DHT22;12804;51.176;4.452;2024-03-08T06:38:25;3.10;1.00
24686;DHT22;12804;51.176;4.452;2024-03-08T06:40:52;3.10;1.00
24686;DHT22;12804;51.176;4.452;2024-03-08T06:43:18;3.20;1.00
24686;DHT22;12804;51.176;4.452;2024-03-08T06:45:47;3.20;1.00
24686;DHT22;12804;51.176;4.452;2024-03-08T06:48:17;3.30;1.00
24686;DHT22;12804;51.176;4.452;2024-03-08T06:50:46;3.30;1.00
24686;DHT22;12804;51.176;4.452;2024-03-08T06:53:13;3.30;1.00
24686;DHT22;12804;51.176;4.452;2024-03-08T06:55:42;3.40;1.00
24686;DHT22;12804;51.176;4.452;2024-03-08T06:58:10;3.40;1.00
24686;DHT22;12804;51.176;4.452;2024-03-08T07:00:37;3.40;1.00
24686;DHT22;12804;51.176;4.452;2024-03-08T07:03:03;4.60;99.70
24686;DHT22;12804;51.176;4.452;2024-03-08T07:05:32;4.30;1.00
24686;DHT22;12804;51.176;4.452;2024-03-08T07:07:58;4.20;1.00
24686;DHT22;12804;51.176;4.452;2024-03-08T07:10:24;4.10;1.00
24686;DHT22;12804;51.176;4.452;2024-03-08T07:12:53;4.00;1.00
24686;DHT22;12804;51.176;4.452;2024-03-08T07:15:20;4.10;1.00
24686;DHT22;12804;51.176;4.452;2024-03-08T07:17:46;4.10;1.00
24686;DHT22;12804;51.176;4.452;2024-03-08T07:20:15;4.10;1.00
24686;DHT22;12804;51.176;4.452;2024-03-08T07:22:47;3.90;1.00
24686;DHT22;12804;51.176;4.452;2024-03-08T07:25:14;3.90;1.00
24686;DHT22;12804;51.176;4.452;2024-03-08T07:27:49;4.80;40.80
24686;DHT22;12804;51.176;4.452;2024-03-08T07:30:15;4.80;1.00
24686;DHT22;12804;51.176;4.452;2024-03-08T07:33:00;4.70;1.00
24686;DHT22;12804;51.176;4.452;2024-03-08T07:35:28;4.50;1.00
24686;DHT22;12804;51.176;4.452;2024-03-08T07:37:54;4.30;1.00
24686;DHT22;12804;51.176;4.452;2024-03-08T07:40:21;4.30;1.00
24686;DHT22;12804;51.176;4.452;2024-03-08T07:42:47;4.30;1.00
24686;DHT22;12804;51.176;4.452;2024-03-08T07:45:13;4.40;1.00
24686;DHT22;12804;51.176;4.452;2024-03-08T07:47:39;4.50;1.00
24686;DHT22;12804;51.176;4.452;2024-03-08T07:50:06;4.50;1.00
24686;DHT22;12804;51.176;4.452;2024-03-08T07:52:34;4.80;1.00
24686;DHT22;12804;51.176;4.452;2024-03-08T07:55:01;4.80;1.00
24686;DHT22;12804;51.176;4.452;2024-03-08T07:57:27;4.70;1.00
24686;DHT22;12804;51.176;4.452;2024-03-08T07:59:53;4.80;1.00
24686;DHT22;12804;51.176;4.452;2024-03-08T08:02:19;4.90;1.00
24686;DHT22;12804;51.176;4.452;2024-03-08T08:04:45;5.00;1.00
24686;DHT22;12804;51.176;4.452;2024-03-08T08:07:11;5.10;1.00
24686;DHT22;12804;51.176;4.452;2024-03-08T08:09:37;5.10;1.00
24686;DHT22;12804;51.176;4.452;2024-03-08T08:12:04;5.00;1.00
24686;DHT22;12804;51.176;4.452;2024-03-08T08:14:30;5.00;1.00
24686;DHT22;12804;51.176;4.452;2024-03-08T08:16:57;5.00;1.00
24686;DHT22;12804;51.176;4.452;2024-03-08T08:19:28;5.20;1.00
24686;DHT22;12804;51.176;4.452;2024-03-08T08:21:55;5.30;1.00
24686;DHT22;12804;51.176;4.452;2024-03-08T08:24:21;5.30;1.00
24686;DHT22;12804;51.176;4.452;2024-03-08T08:26:47;5.40;1.00
24686;DHT22;12804;51.176;4.452;2024-03-08T08:29:13;5.30;1.00
24686;DHT22;12804;51.176;4.452;2024-03-08T08:31:39;5.40;1.00
24686;DHT22;12804;51.176;4.452;2024-03-08T08:34:05;5.60;1.00
24686;DHT22;12804;51.176;4.452;2024-03-08T08:36:32;5.80;1.00
24686;DHT22;12804;51.176;4.452;2024-03-08T08:38:59;5.90;1.00
24686;DHT22;12804;51.176;4.452;2024-03-08T08:41:25;6.00;1.00
24686;DHT22;12804;51.176;4.452;2024-03-08T08:43:52;5.90;1.00
24686;DHT22;12804;51.176;4.452;2024-03-08T08:46:18;6.00;1.00
24686;DHT22;12804;51.176;4.452;2024-03-08T08:48:44;6.10;1.00
24686;DHT22;12804;51.176;4.452;2024-03-08T08:51:13;6.20;1.00
24686;DHT22;12804;51.176;4.452;2024-03-08T08:53:42;6.40;1.00
24686;DHT22;12804;51.176;4.452;2024-03-08T08:56:09;6.40;1.00
24686;DHT22;12804;51.176;4.452;2024-03-08T08:58:43;6.40;1.00
24686;DHT22;12804;51.176;4.452;2024-03-08T09:01:10;6.40;1.00
24686;DHT22;12804;51.176;4.452;2024-03-08T09:03:36;6.40;1.00
24686;DHT22;12804;51.176;4.452;2024-03-08T09:06:09;6.40;1.00
24686;DHT22;12804;51.176;4.452;2024-03-08T09:08:36;6.50;1.00
24686;DHT22;12804;51.176;4.452;2024-03-08T09:11:02;6.60;1.00
24686;DHT22;12804;51.176;4.452;2024-03-08T09:13:28;6.60;99.90
24686;DHT22;12804;51.176;4.452;2024-03-08T09:15:54;6.70;1.00
24686;DHT22;12804;51.176;4.452;2024-03-08T09:18:20;6.80;1.00
24686;DHT22;12804;51.176;4.452;2024-03-08T09:20:46;7.00;99.90
24686;DHT22;12804;51.176;4.452;2024-03-08T09:23:13;7.00;99.90
24686;DHT22;12804;51.176;4.452;2024-03-08T09:25:42;7.10;99.90
24686;DHT22;12804;51.176;4.452;2024-03-08T09:28:10;7.20;99.90
24686;DHT22;12804;51.176;4.452;2024-03-08T09:30:39;7.30;99.90
24686;DHT22;12804;51.176;4.452;2024-03-08T09:33:06;7.30;99.90
24686;DHT22;12804;51.176;4.452;2024-03-08T09:35:32;7.40;99.90
24686;DHT22;12804;51.176;4.452;2024-03-08T09:37:59;7.50;99.90
24686;DHT22;12804;51.176;4.452;2024-03-08T09:40:26;7.40;1.00
24686;DHT22;12804;51.176;4.452;2024-03-08T09:42:53;7.20;99.90
24686;DHT22;12804;51.176;4.452;2024-03-08T09:45:20;7.40;99.90
24686;DHT22;12804;51.176;4.452;2024-03-08T09:47:51;7.50;99.90
24686;DHT22;12804;51.176;4.452;2024-03-08T09:50:19;7.60;99.90
24686;DHT22;12804;51.176;4.452;2024-03-08T09:52:49;7.70;1.00
24686;DHT22;12804;51.176;4.452;2024-03-08T09:55:18;7.90;1.00
24686;DHT22;12804;51.176;4.452;2024-03-08T09:57:48;8.00;26.40
24686;DHT22;12804;51.176;4.452;2024-03-08T10:00:34;8.20;1.00
24686;DHT22;12804;51.176;4.452;2024-03-08T10:03:01;8.30;1.00
24686;DHT22;12804;51.176;4.452;2024-03-08T10:05:27;8.30;99.90
24686;DHT22;12804;51.176;4.452;2024-03-08T10:07:53;8.40;1.00
24686;DHT22;12804;51.176;4.452;2024-03-08T10:10:19;8.50;99.90
24686;DHT22;12804;51.176;4.452;2024-03-08T10:12:46;8.60;84.50
24686;DHT22;12804;51.176;4.452;2024-03-08T10:15:12;8.80;1.00
24686;DHT22;12804;51.176;4.452;2024-03-08T10:17:38;8.80;1.00
24686;DHT22;12804;51.176;4.452;2024-03-08T10:20:15;8.80;1.00
24686;DHT22;12804;51.176;4.452;2024-03-08T10:22:42;8.80;1.00
24686;DHT22;12804;51.176;4.452;2024-03-08T10:25:11;8.80;99.90
24686;DHT22;12804;51.176;4.452;2024-03-08T10:27:41;8.90;99.90
24686;DHT22;12804;51.176;4.452;2024-03-08T10:30:15;9.00;1.00
24686;DHT22;12804;51.176;4.452;2024-03-08T10:32:42;9.40;1.00
24686;DHT22;12804;51.176;4.452;2024-03-08T10:35:10;9.80;1.00
24686;DHT22;12804;51.176;4.452;2024-03-08T10:37:50;10.20;1.00
24686;DHT22;12804;51.176;4.452;2024-03-08T10:40:28;11.00;1.00
24686;DHT22;12804;51.176;4.452;2024-03-08T10:42:56;11.30;1.00
24686;DHT22;12804;51.176;4.452;2024-03-08T10:45:36;11.70;1.00
24686;DHT22;12804;51.176;4.452;2024-03-08T10:48:30;11.80;99.90
24686;DHT22;12804;51.176;4.452;2024-03-08T10:51:04;12.20;99.90
24686;DHT22;12804;51.176;4.452;2024-03-08T10:53:31;12.70;1.00
24686;DHT22;12804;51.176;4.452;2024-03-08T10:55:57;13.20;99.90
24686;DHT22;12804;51.176;4.452;2024-03-08T10:58:26;13.20;94.60
24686;DHT22;12804;51.176;4.452;2024-03-08T11:00:56;13.10;99.90
24686;DHT22;12804;51.176;4.452;2024-03-08T11:06:07;13.90;1.00
24686;DHT22;12804;51.176;4.452;2024-03-08T11:08:37;13.90;1.00
24686;DHT22;12804;51.176;4.452;2024-03-08T11:11:04;13.80;1.00
24686;DHT22;12804;51.176;4.452;2024-03-08T11:13:41;13.70;1.00
24686;DHT22;12804;51.176;4.452;2024-03-08T11:19:00;13.60;1.00
24686;DHT22;12804;51.176;4.452;2024-03-08T11:21:33;13.50;1.00
24686;DHT22;12804;51.176;4.452;2024-03-08T11:24:06;13.90;1.00
24686;DHT22;12804;51.176;4.452;2024-03-08T11:26:32;13.90;1.00
24686;DHT22;12804;51.176;4.452;2024-03-08T11:32:07;13.90;1.00
24686;DHT22;12804;51.176;4.452;2024-03-08T11:34:33;13.90;1.00
24686;DHT22;12804;51.176;4.452;2024-03-08T11:36:59;14.40;1.00
24686;DHT22;12804;51.176;4.452;2024-03-08T11:39:26;14.60;99.90
24686;DHT22;12804;51.176;4.452;2024-03-08T11:41:54;15.60;99.90
24686;DHT22;12804;51.176;4.452;2024-03-08T11:44:21;15.60;99.90
24686;DHT22;12804;51.176;4.452;2024-03-08T11:46:46;15.80;99.90
24686;DHT22;12804;51.176;4.452;2024-03-08T11:49:14;16.60;99.90
24686;DHT22;12804;51.176;4.452;2024-03-08T11:51:41;16.30;99.90
24686;DHT22;12804;51.176;4.452;2024-03-08T11:54:11;16.00;99.90
24686;DHT22;12804;51.176;4.452;2024-03-08T11:56:38;15.90;99.90
24686;DHT22;12804;51.176;4.452;2024-03-08T11:59:11;15.90;99.90
24686;DHT22;12804;51.176;4.452;2024-03-08T12:01:39;15.90;99.90
24686;DHT22;12804;51.176;4.452;2024-03-08T12:04:05;16.70;99.90
24686;DHT22;12804;51.176;4.452;2024-03-08T12:06:40;17.40;54.10
24686;DHT22;12804;51.176;4.452;2024-03-08T12:09:11;17.40;1.00
24686;DHT22;12804;51.176;4.452;2024-03-08T12:11:37;17.70;1.00
24686;DHT22;12804;51.176;4.452;2024-03-08T12:14:03;17.20;1.00
24686;DHT22;12804;51.176;4.452;2024-03-08T12:16:30;17.40;1.00
24686;DHT22;12804;51.176;4.452;2024-03-08T12:18:56;17.30;1.00
24686;DHT22;12804;51.176;4.452;2024-03-08T12:21:23;17.80;1.00
24686;DHT22;12804;51.176;4.452;2024-03-08T12:24:08;17.60;1.00
24686;DHT22;12804;51.176;4.452;2024-03-08T12:26:36;18.00;1.00
24686;DHT22;12804;51.176;4.452;2024-03-08T12:29:16;16.90;1.00
24686;DHT22;12804;51.176;4.452;2024-03-08T12:31:43;15.80;1.00
24686;DHT22;12804;51.176;4.452;2024-03-08T12:34:10;15.40;1.00
24686;DHT22;12804;51.176;4.452;2024-03-08T12:36:36;15.30;1.00
24686;DHT22;12804;51.176;4.452;2024-03-08T12:39:02;15.10;17.30
24686;DHT22;12804;51.176;4.452;2024-03-08T12:41:31;15.20;16.80
24686;DHT22;12804;51.176;4.452;2024-03-08T12:43:58;15.00;62.80
24686;DHT22;12804;51.176;4.452;2024-03-08T12:46:24;14.90;85.00
24686;DHT22;12804;51.176;4.452;2024-03-08T12:48:52;14.80;99.90
24686;DHT22;12804;51.176;4.452;2024-03-08T12:51:20;14.90;99.90
24686;DHT22;12804;51.176;4.452;2024-03-08T12:53:46;14.70;99.90
24686;DHT22;12804;51.176;4.452;2024-03-08T12:56:31;14.50;99.90
24686;DHT22;12804;51.176;4.452;2024-03-08T12:59:04;14.50;99.90
24686;DHT22;12804;51.176;4.452;2024-03-08T13:01:31;14.70;99.90
24686;DHT22;12804;51.176;4.452;2024-03-08T13:04:00;15.00;99.90
24686;DHT22;12804;51.176;4.452;2024-03-08T13:06:28;14.70;99.90
24686;DHT22;12804;51.176;4.452;2024-03-08T13:08:54;14.90;99.90
24686;DHT22;12804;51.176;4.452;2024-03-08T13:11:21;14.70;99.90
24686;DHT22;12804;51.176;4.452;2024-03-08T13:13:49;14.40;99.90
24686;DHT22;12804;51.176;4.452;2024-03-08T13:16:15;14.60;99.90
24686;DHT22;12804;51.176;4.452;2024-03-08T13:18:43;14.80;99.90
24686;DHT22;12804;51.176;4.452;2024-03-08T13:21:09;14.80;99.90
24686;DHT22;12804;51.176;4.452;2024-03-08T13:23:37;14.90;99.90
24686;DHT22;12804;51.176;4.452;2024-03-08T13:26:10;14.70;99.90
24686;DHT22;12804;51.176;4.452;2024-03-08T13:28:45;14.70;99.90
24686;DHT22;12804;51.176;4.452;2024-03-08T13:31:11;14.50;99.90
24686;DHT22;12804;51.176;4.452;2024-03-08T13:33:38;14.60;99.90
24686;DHT22;12804;51.176;4.452;2024-03-08T13:36:05;14.90;99.90
24686;DHT22;12804;51.176;4.452;2024-03-08T13:38:32;15.00;99.90
24686;DHT22;12804;51.176;4.452;2024-03-08T13:40:59;15.00;99.90
24686;DHT22;12804;51.176;4.452;2024-03-08T13:43:25;14.90;99.90
24686;DHT22;12804;51.176;4.452;2024-03-08T13:45:55;15.20;99.90
24686;DHT22;12804;51.176;4.452;2024-03-08T13:48:21;15.50;99.90
24686;DHT22;12804;51.176;4.452;2024-03-08T13:50:48;15.90;99.90
24686;DHT22;12804;51.176;4.452;2024-03-08T13:53:15;16.20;99.90
24686;DHT22;12804;51.176;4.452;2024-03-08T13:55:41;16.70;99.90
24686;DHT22;12804;51.176;4.452;2024-03-08T13:58:07;17.30;99.90
24686;DHT22;12804;51.176;4.452;2024-03-08T14:00:38;17.60;99.90
24686;DHT22;12804;51.176;4.452;2024-03-08T14:03:04;18.20;76.50
24686;DHT22;12804;51.176;4.452;2024-03-08T14:05:33;18.70;1.00
24686;DHT22;12804;51.176;4.452;2024-03-08T14:08:03;19.40;1.00
24686;DHT22;12804;51.176;4.452;2024-03-08T14:10:30;19.00;1.00
24686;DHT22;12804;51.176;4.452;2024-03-08T14:12:57;19.60;1.00
24686;DHT22;12804;51.176;4.452;2024-03-08T14:15:23;20.40;1.00
24686;DHT22;12804;51.176;4.452;2024-03-08T14:17:54;20.50;1.00
24686;DHT22;12804;51.176;4.452;2024-03-08T14:20:20;21.00;1.00
24686;DHT22;12804;51.176;4.452;2024-03-08T14:22:49;20.40;1.00
24686;DHT22;12804;51.176;4.452;2024-03-08T14:25:17;20.50;1.00
24686;DHT22;12804;51.176;4.452;2024-03-08T14:27:44;21.20;1.00
24686;DHT22;12804;51.176;4.452;2024-03-08T14:30:11;21.00;1.00
24686;DHT22;12804;51.176;4.452;2024-03-08T14:32:37;21.00;1.00
24686;DHT22;12804;51.176;4.452;2024-03-08T14:35:05;19.90;1.00
24686;DHT22;12804;51.176;4.452;2024-03-08T14:37:31;19.60;1.00
24686;DHT22;12804;51.176;4.452;2024-03-08T14:39:57;20.90;1.00
24686;DHT22;12804;51.176;4.452;2024-03-08T14:42:24;21.50;1.00
24686;DHT22;12804;51.176;4.452;2024-03-08T14:44:51;21.30;1.00
24686;DHT22;12804;51.176;4.452;2024-03-08T14:47:19;22.40;1.00
24686;DHT22;12804;51.176;4.452;2024-03-08T14:49:45;23.30;1.00
24686;DHT22;12804;51.176;4.452;2024-03-08T14:52:11;22.70;1.00
24686;DHT22;12804;51.176;4.452;2024-03-08T14:54:55;22.20;1.00
24686;DHT22;12804;51.176;4.452;2024-03-08T14:57:24;20.90;1.00
24686;DHT22;12804;51.176;4.452;2024-03-08T14:59:50;21.30;1.00
24686;DHT22;12804;51.176;4.452;2024-03-08T15:02:16;21.80;1.00
24686;DHT22;12804;51.176;4.452;2024-03-08T15:04:47;22.50;1.00
24686;DHT22;12804;51.176;4.452;2024-03-08T15:07:23;22.00;1.00
24686;DHT22;12804;51.176;4.452;2024-03-08T15:09:49;21.20;1.00
24686;DHT22;12804;51.176;4.452;2024-03-08T15:12:15;21.30;1.00
24686;DHT22;12804;51.176;4.452;2024-03-08T15:14:41;20.00;1.00
24686;DHT22;12804;51.176;4.452;2024-03-08T15:17:12;18.20;1.00
24686;DHT22;12804;51.176;4.452;2024-03-08T15:19:48;17.00;1.00
24686;DHT22;12804;51.176;4.452;2024-03-08T15:22:19;16.10;1.00
24686;DHT22;12804;51.176;4.452;2024-03-08T15:24:45;15.40;1.00
24686;DHT22;12804;51.176;4.452;2024-03-08T15:27:11;15.00;1.00
24686;DHT22;12804;51.176;4.452;2024-03-08T15:29:38;14.50;1.00
24686;DHT22;12804;51.176;4.452;2024-03-08T15:32:04;14.20;90.50
24686;DHT22;12804;51.176;4.452;2024-03-08T15:34:31;14.10;99.90
24686;DHT22;12804;51.176;4.452;2024-03-08T15:37:03;14.00;99.90
24686;DHT22;12804;51.176;4.452;2024-03-08T15:39:30;14.00;99.90
24686;DHT22;12804;51.176;4.452;2024-03-08T15:41:59;13.60;99.90
24686;DHT22;12804;51.176;4.452;2024-03-08T15:44:26;13.40;1.00
24686;DHT22;12804;51.176;4.452;2024-03-08T15:46:53;13.40;1.00
24686;DHT22;12804;51.176;4.452;2024-03-08T15:49:19;13.20;1.00
24686;DHT22;12804;51.176;4.452;2024-03-08T15:51:46;13.10;1.00
24686;DHT22;12804;51.176;4.452;2024-03-08T15:54:12;12.90;1.00
24686;DHT22;12804;51.176;4.452;2024-03-08T15:56:38;12.80;1.00
24686;DHT22;12804;51.176;4.452;2024-03-08T15:59:04;12.80;1.00
24686;DHT22;12804;51.176;4.452;2024-03-08T16:01:32;12.80;1.00
24686;DHT22;12804;51.176;4.452;2024-03-08T16:03:58;12.70;1.00